Time;durP1;ratioP1;P1;durP2;ratioP2;P2;SDS_P1;SDS_P2;PMS_P1;PMS_P2;Temp;Humidity;BMP_temperature;BMP_pressure;BME280_temperature;BME280_humidity;BME280_pressure;Samples;Min_cycle;Max_cycle;Signal;HPM_P1;HPM_P2
2023/03/04 00:01:49;;;;;;;17.80;2.97;;;8.50;80.20;;;;;;5085950;28;20059;-72
2023/03/04 00:04:15;;;;;;;15.00;3.63;;;8.50;80.30;;;;;;5088890;28;20025;-72
2023/03/04 00:06:41;;;;;;;17.88;3.65;;;8.50;80.40;;;;;;5083627;28;20765;-74
2023/03/04 00:09:07;;;;;;;21.65;3.58;;;8.50;80.40;;;;;;5080985;28;20174;-73
2023/03/04 00:11:33;;;;;;;13.95;2.95;;;8.50;81.50;;;;;;5082507;28;20110;-74
2023/03/04 00:13:59;;;;;;;18.90;3.25;;;8.50;81.40;;;;;;5082320;28;20020;-73
2023/03/04 00:16:27;;;;;;;23.58;3.20;;;8.50;80.90;;;;;;5077896;28;20028;-74
2023/03/04 00:18:56;;;;;;;19.17;3.85;;;8.50;81.00;;;;;;5081521;28;20026;-74
2023/03/04 00:21:22;;;;;;;16.25;3.78;;;8.40;81.30;;;;;;5078951;28;20028;-74
2023/03/04 00:23:48;;;;;;;15.60;3.80;;;8.30;82.60;;;;;;5081351;28;20032;-74
2023/03/04 00:26:15;;;;;;;12.25;2.83;;;8.30;83.70;;;;;;5081662;28;20020;-74
2023/03/04 00:28:41;;;;;;;16.58;3.45;;;8.30;82.00;;;;;;5080582;28;20040;-74
2023/03/04 00:31:07;;;;;;;15.57;2.95;;;8.30;81.30;;;;;;5078824;28;20039;-74
2023/03/04 00:33:33;;;;;;;18.70;3.90;;;8.30;81.00;;;;;;5073350;28;20024;-76
2023/03/04 00:35:59;;;;;;;13.73;3.15;;;8.40;80.90;;;;;;5081356;28;20029;-75
2023/03/04 00:38:25;;;;;;;23.35;2.92;;;8.40;80.90;;;;;;5078327;28;20032;-74
2023/03/04 00:40:51;;;;;;;13.10;3.30;;;8.40;80.80;;;;;;5075261;28;20039;-73
2023/03/04 00:43:17;;;;;;;22.80;3.90;;;8.40;81.80;;;;;;5074611;28;20028;-73
2023/03/04 00:45:42;;;;;;;13.10;2.80;;;8.50;81.10;;;;;;5074108;28;20807;-74
2023/03/04 00:48:08;;;;;;;26.38;4.43;;;8.50;80.90;;;;;;5075147;28;20069;-74
2023/03/04 00:50:34;;;;;;;20.20;3.17;;;8.50;81.30;;;;;;5078455;28;20094;-73
2023/03/04 00:53:00;;;;;;;17.08;2.88;;;8.40;82.00;;;;;;5076921;28;20032;-74
2023/03/04 00:55:26;;;;;;;9.85;2.90;;;8.30;81.50;;;;;;5081197;28;20017;-73
2023/03/04 00:57:52;;;;;;;22.52;3.33;;;8.30;81.40;;;;;;5074170;28;20028;-74
2023/03/04 01:00:18;;;;;;;20.85;3.72;;;8.30;81.50;;;;;;5076733;28;20042;-75
2023/03/04 01:02:46;;;;;;;14.55;2.88;;;8.30;81.50;;;;;;5075986;28;20859;-74
2023/03/04 01:05:12;;;;;;;15.10;2.95;;;8.20;81.80;;;;;;5082091;28;20028;-74
2023/03/04 01:07:37;;;;;;;18.95;3.10;;;8.20;81.80;;;;;;5078655;28;20072;-73
2023/03/04 01:10:06;;;;;;;12.68;2.20;;;8.20;82.30;;;;;;5080062;28;20025;-73
2023/03/04 01:12:32;;;;;;;20.55;3.13;;;8.20;82.20;;;;;;5080668;28;20529;-73
2023/03/04 01:14:57;;;;;;;14.05;2.53;;;8.10;82.20;;;;;;5083351;28;20023;-73
2023/03/04 01:17:23;;;;;;;16.55;3.47;;;8.10;82.30;;;;;;5077173;28;20125;-73
2023/03/04 01:19:49;;;;;;;14.32;2.58;;;8.20;82.30;;;;;;5075918;28;20779;-74
2023/03/04 01:22:15;;;;;;;15.25;3.25;;;8.20;83.40;;;;;;5074021;28;20026;-74
2023/03/04 01:24:42;;;;;;;14.60;2.50;;;8.20;82.60;;;;;;5085113;28;20020;-74
2023/03/04 01:27:07;;;;;;;17.45;2.67;;;8.30;82.40;;;;;;5080652;28;20032;-74
2023/03/04 01:29:33;;;;;;;16.55;3.38;;;8.30;82.20;;;;;;5089579;28;20032;-74
2023/03/04 01:31:59;;;;;;;18.85;3.30;;;8.30;82.60;;;;;;5081695;28;20054;-74
2023/03/04 01:34:25;;;;;;;20.27;3.53;;;8.20;82.80;;;;;;5082381;28;20023;-73
2023/03/04 01:36:51;;;;;;;8.60;1.92;;;8.20;82.50;;;;;;5084816;28;20050;-73
2023/03/04 01:39:16;;;;;;;21.23;2.75;;;8.30;83.30;;;;;;5087203;28;20024;-74
2023/03/04 01:41:46;;;;;;;22.95;4.20;;;8.30;82.80;;;;;;5084156;28;20024;-75
2023/03/04 01:44:12;;;;;;;20.33;3.67;;;8.30;82.50;;;;;;5075680;28;20031;-74
2023/03/04 01:46:41;;;;;;;12.93;2.85;;;8.30;82.40;;;;;;5078877;28;20028;-75
2023/03/04 01:49:10;;;;;;;14.43;4.10;;;8.30;82.40;;;;;;5080933;28;20449;-75
2023/03/04 01:51:36;;;;;;;13.88;2.53;;;8.30;82.60;;;;;;5081339;28;20631;-74
2023/03/04 01:54:02;;;;;;;12.88;2.67;;;8.20;83.60;;;;;;5084532;28;20142;-74
2023/03/04 01:56:33;;;;;;;16.83;3.38;;;8.20;84.10;;;;;;5084102;28;20024;-74
2023/03/04 01:59:18;;;;;;;10.80;2.22;;;8.10;84.90;;;;;;5082776;28;20024;-74
2023/03/04 02:01:52;;;;;;;12.18;2.95;;;8.10;83.90;;;;;;5079499;28;20051;-74
2023/03/04 02:04:21;;;;;;;11.88;2.45;;;8.00;83.80;;;;;;5086930;28;20024;-75
2023/03/04 02:06:49;;;;;;;11.63;2.20;;;8.10;84.20;;;;;;5083115;28;20024;-73
2023/03/04 02:09:17;;;;;;;12.10;2.53;;;8.10;85.50;;;;;;5084809;28;20063;-74
2023/03/04 02:11:46;;;;;;;19.70;2.72;;;8.00;84.40;;;;;;5081586;28;20065;-74
2023/03/04 02:14:12;;;;;;;18.02;2.72;;;8.10;84.30;;;;;;5078337;28;20162;-74
2023/03/04 02:16:38;;;;;;;19.80;3.38;;;8.10;83.80;;;;;;5084134;28;20033;-75
2023/03/04 02:19:08;;;;;;;24.00;3.40;;;8.10;84.30;;;;;;5079362;28;20036;-74
2023/03/04 02:21:34;;;;;;;13.23;2.78;;;8.20;83.70;;;;;;5084678;28;20028;-75
2023/03/04 02:24:08;;;;;;;14.93;2.83;;;8.20;83.60;;;;;;5081954;28;20073;-74
2023/03/04 02:26:35;;;;;;;18.20;2.75;;;8.20;83.60;;;;;;5086295;28;20028;-74
2023/03/04 02:29:02;;;;;;;16.92;2.92;;;8.20;83.60;;;;;;5081393;28;20044;-74
2023/03/04 02:31:30;;;;;;;15.45;2.25;;;8.20;83.60;;;;;;5084554;28;20025;-75
2023/03/04 02:33:59;;;;;;;14.85;2.60;;;8.20;83.70;;;;;;5080662;28;20388;-73
2023/03/04 02:36:25;;;;;;;14.25;2.45;;;8.20;83.70;;;;;;5079713;28;20107;-74
2023/03/04 02:38:53;;;;;;;15.98;2.80;;;8.10;83.40;;;;;;5083222;28;20059;-73
2023/03/04 02:41:25;;;;;;;13.25;2.92;;;8.10;83.30;;;;;;5077692;28;20741;-74
2023/03/04 02:43:52;;;;;;;11.30;1.67;;;8.00;85.00;;;;;;5080109;28;20544;-74
2023/03/04 02:46:19;;;;;;;13.75;2.88;;;8.00;85.20;;;;;;5080397;28;20760;-73
2023/03/04 02:48:44;;;;;;;14.18;3.05;;;7.90;85.20;;;;;;5079610;28;20111;-74
2023/03/04 02:51:11;;;;;;;14.80;3.05;;;7.90;83.70;;;;;;5083799;28;20170;-74
2023/03/04 02:53:37;;;;;;;14.32;2.33;;;7.90;83.40;;;;;;5083656;28;20020;-74
2023/03/04 02:56:02;;;;;;;10.73;2.45;;;8.00;83.20;;;;;;5073284;28;20036;-75
2023/03/04 02:58:28;;;;;;;18.35;2.33;;;8.10;83.00;;;;;;5084139;28;20032;-74
2023/03/04 03:00:54;;;;;;;8.63;1.38;;;8.10;82.70;;;;;;5081648;28;20045;-74
2023/03/04 03:03:20;;;;;;;11.65;1.90;;;8.10;84.20;;;;;;5082500;28;20114;-73
2023/03/04 03:05:45;;;;;;;20.42;3.92;;;8.10;85.60;;;;;;5076361;28;20400;-74
2023/03/04 03:08:11;;;;;;;10.02;2.35;;;8.10;84.90;;;;;;5077291;28;20052;-74
2023/03/04 03:10:37;;;;;;;12.93;2.42;;;8.10;84.00;;;;;;5080914;28;20046;-74
2023/03/04 03:13:02;;;;;;;12.70;2.88;;;8.10;84.00;;;;;;5084514;28;20024;-74
2023/03/04 03:15:28;;;;;;;13.25;2.35;;;8.10;83.60;;;;;;5082247;28;20107;-74
2023/03/04 03:17:54;;;;;;;11.43;2.42;;;8.10;84.00;;;;;;5081139;28;20108;-74
2023/03/04 03:20:19;;;;;;;15.98;2.30;;;8.10;83.10;;;;;;5080462;28;20440;-74
2023/03/04 03:22:46;;;;;;;14.15;2.25;;;8.20;82.70;;;;;;5082155;28;20020;-74
2023/03/04 03:25:14;;;;;;;15.27;2.97;;;8.20;83.20;;;;;;5081402;28;20056;-73
2023/03/04 03:27:40;;;;;;;19.08;2.30;;;8.20;82.60;;;;;;5080854;28;20096;-75
2023/03/04 03:30:08;;;;;;;15.05;2.30;;;8.20;82.50;;;;;;5081076;28;20052;-73
2023/03/04 03:32:34;;;;;;;14.63;2.90;;;8.30;82.30;;;;;;5084098;28;20031;-73
2023/03/04 03:35:00;;;;;;;13.52;2.50;;;8.30;82.30;;;;;;5080895;28;20064;-74
2023/03/04 03:37:26;;;;;;;11.73;1.92;;;8.30;82.20;;;;;;5079386;28;20734;-73
2023/03/04 03:39:51;;;;;;;17.52;2.88;;;8.30;82.20;;;;;;5076556;28;20027;-74
2023/03/04 03:42:17;;;;;;;14.38;2.25;;;8.30;82.30;;;;;;5077569;28;20024;-74
2023/03/04 03:44:43;;;;;;;13.27;2.17;;;8.20;82.50;;;;;;5080055;28;20024;-74
2023/03/04 03:47:09;;;;;;;14.05;2.45;;;8.30;82.70;;;;;;5081363;28;20099;-73
2023/03/04 03:49:35;;;;;;;13.55;2.30;;;8.30;82.70;;;;;;5085616;28;20032;-74
2023/03/04 03:52:01;;;;;;;12.80;3.60;;;8.20;83.60;;;;;;5083851;28;20028;-74
2023/03/04 03:54:26;;;;;;;15.45;2.30;;;8.20;84.30;;;;;;5081967;28;22029;-73
2023/03/04 03:56:52;;;;;;;15.20;2.20;;;8.10;84.10;;;;;;5080419;28;20017;-73
2023/03/04 03:59:18;;;;;;;10.35;1.92;;;8.10;84.00;;;;;;5078615;28;20031;-73
2023/03/04 04:01:43;;;;;;;14.18;3.05;;;8.10;84.10;;;;;;5075302;28;20039;-74
2023/03/04 04:04:09;;;;;;;12.98;2.50;;;8.10;83.90;;;;;;5080009;28;20028;-74
2023/03/04 04:06:35;;;;;;;16.40;2.42;;;8.20;83.70;;;;;;5075967;28;20030;-74
2023/03/04 04:09:00;;;;;;;9.15;1.50;;;8.20;83.50;;;;;;5084744;28;20048;-74
2023/03/04 04:11:26;;;;;;;14.70;1.95;;;8.20;84.30;;;;;;5083540;28;20077;-73
2023/03/04 04:13:52;;;;;;;11.80;2.63;;;8.20;84.80;;;;;;5083417;28;20631;-73
2023/03/04 04:16:18;;;;;;;14.57;2.22;;;8.10;84.00;;;;;;5079940;28;20092;-72
2023/03/04 04:18:43;;;;;;;12.88;2.05;;;8.20;84.70;;;;;;5080735;28;20028;-73
2023/03/04 04:21:09;;;;;;;13.20;1.98;;;8.20;85.20;;;;;;5085076;28;20112;-73
2023/03/04 04:23:35;;;;;;;10.35;2.03;;;8.10;84.40;;;;;;5078722;28;20060;-73
2023/03/04 04:26:00;;;;;;;8.70;2.00;;;8.20;84.30;;;;;;5080453;28;20024;-73
2023/03/04 04:28:26;;;;;;;14.77;2.17;;;8.20;84.70;;;;;;5073483;28;20548;-73
2023/03/04 04:30:52;;;;;;;12.20;2.00;;;8.20;84.50;;;;;;5079527;28;20115;-74
2023/03/04 04:33:17;;;;;;;13.43;2.33;;;8.20;84.40;;;;;;5072415;28;20070;-74
2023/03/04 04:35:44;;;;;;;15.55;2.95;;;8.20;84.20;;;;;;5082165;28;20028;-73
2023/03/04 04:38:10;;;;;;;16.13;2.45;;;8.20;84.20;;;;;;5080571;28;20031;-73
2023/03/04 04:40:36;;;;;;;17.50;3.88;;;8.20;84.30;;;;;;5079579;28;20020;-74
2023/03/04 04:43:02;;;;;;;16.23;3.28;;;8.20;84.70;;;;;;5077927;28;20025;-75
2023/03/04 04:45:28;;;;;;;16.38;4.53;;;8.20;84.40;;;;;;5084869;28;20075;-72
2023/03/04 04:47:56;;;;;;;13.80;1.95;;;8.10;84.40;;;;;;5076618;28;20074;-74
2023/03/04 04:50:23;;;;;;;14.57;3.28;;;8.10;84.40;;;;;;5079677;28;20025;-75
2023/03/04 04:52:49;;;;;;;12.73;2.50;;;8.10;84.50;;;;;;5077349;28;20103;-74
2023/03/04 04:55:15;;;;;;;13.93;2.10;;;8.10;84.60;;;;;;5082407;28;20035;-73
2023/03/04 04:57:41;;;;;;;8.35;1.75;;;8.10;84.80;;;;;;5080392;28;20024;-74
2023/03/04 05:00:08;;;;;;;18.33;1.90;;;8.10;85.30;;;;;;5082971;28;20055;-74
2023/03/04 05:02:36;;;;;;;13.48;2.22;;;8.10;85.20;;;;;;5081471;28;20165;-74
2023/03/04 05:05:05;;;;;;;14.95;2.45;;;8.10;85.30;;;;;;5083988;28;20917;-73
2023/03/04 05:07:33;;;;;;;10.13;2.17;;;8.00;85.60;;;;;;5081501;28;20071;-74
2023/03/04 05:09:59;;;;;;;14.10;2.88;;;8.10;85.80;;;;;;5082798;28;20028;-73
2023/03/04 05:12:24;;;;;;;14.55;1.77;;;8.10;86.00;;;;;;5078057;28;20040;-74
2023/03/04 05:14:50;;;;;;;9.68;2.40;;;8.10;85.90;;;;;;5080410;28;20070;-73
2023/03/04 05:17:16;;;;;;;9.82;2.22;;;8.10;86.00;;;;;;5083531;28;20709;-73
2023/03/04 05:19:41;;;;;;;13.50;1.67;;;8.10;86.30;;;;;;5083190;28;20131;-74
2023/03/04 05:22:07;;;;;;;9.63;1.98;;;8.10;86.00;;;;;;5086113;28;20031;-75
2023/03/04 05:24:33;;;;;;;14.50;2.58;;;8.20;85.70;;;;;;5082874;28;20109;-73
2023/03/04 05:27:00;;;;;;;15.23;2.33;;;8.10;85.70;;;;;;5083110;28;20529;-73
2023/03/04 05:29:26;;;;;;;17.05;2.58;;;8.20;85.80;;;;;;5085363;28;20044;-73
2023/03/04 05:31:53;;;;;;;10.60;2.40;;;8.10;86.00;;;;;;5084485;28;20025;-74
2023/03/04 05:34:18;;;;;;;14.98;1.95;;;8.10;85.70;;;;;;5081230;28;20501;-74
2023/03/04 05:36:45;;;;;;;17.17;2.78;;;8.10;85.70;;;;;;5086112;28;20020;-73
2023/03/04 05:39:11;;;;;;;13.82;2.38;;;8.10;85.70;;;;;;5078652;28;20017;-73
2023/03/04 05:41:36;;;;;;;16.45;1.88;;;8.10;85.90;;;;;;5083056;28;20043;-74
2023/03/04 05:44:02;;;;;;;11.43;2.00;;;8.00;86.40;;;;;;5083163;28;20028;-73
2023/03/04 05:46:28;;;;;;;7.30;2.20;;;7.90;86.80;;;;;;5083082;28;20029;-74
2023/03/04 05:48:54;;;;;;;12.93;2.42;;;7.80;87.30;;;;;;5081148;28;20117;-74
2023/03/04 05:51:20;;;;;;;12.90;2.85;;;7.80;87.60;;;;;;5088031;28;20024;-74
2023/03/04 05:53:46;;;;;;;11.18;1.85;;;7.90;87.60;;;;;;5087610;28;20031;-74
2023/03/04 05:56:14;;;;;;;8.73;1.65;;;7.90;87.80;;;;;;5081812;28;20403;-74
2023/03/04 05:58:41;;;;;;;8.95;1.80;;;7.90;87.80;;;;;;5087177;28;20462;-73
2023/03/04 06:01:07;;;;;;;10.50;2.15;;;7.90;87.70;;;;;;5084586;28;20032;-73
2023/03/04 06:03:33;;;;;;;13.80;2.50;;;7.90;88.50;;;;;;5083649;28;20396;-74
2023/03/04 06:05:58;;;;;;;8.07;1.92;;;7.90;88.10;;;;;;5084104;28;20020;-74
2023/03/04 06:08:25;;;;;;;10.05;1.80;;;7.90;88.10;;;;;;5083497;28;20135;-73
2023/03/04 06:10:53;;;;;;;13.35;2.42;;;7.90;88.10;;;;;;5083388;28;20023;-74
2023/03/04 06:13:19;;;;;;;13.00;3.20;;;7.90;88.40;;;;;;5086110;28;20051;-75
2023/03/04 06:15:44;;;;;;;14.88;5.47;;;7.90;88.60;;;;;;5083746;28;20100;-74
2023/03/04 06:18:10;;;;;;;21.85;6.95;;;7.90;88.70;;;;;;5080923;28;20490;-74
2023/03/04 06:20:36;;;;;;;17.80;4.75;;;7.90;88.80;;;;;;5076601;28;20016;-73
2023/03/04 06:23:02;;;;;;;19.83;3.80;;;8.00;89.00;;;;;;5086826;28;20024;-73
2023/03/04 06:25:28;;;;;;;14.60;4.28;;;8.00;88.80;;;;;;5084586;28;20024;-73
2023/03/04 06:27:54;;;;;;;16.98;3.97;;;8.00;88.80;;;;;;5073668;28;20032;-73
2023/03/04 06:30:20;;;;;;;14.55;3.50;;;8.10;89.40;;;;;;5078344;28;20025;-74
2023/03/04 06:32:46;;;;;;;21.85;7.20;;;8.10;88.70;;;;;;5078798;28;20076;-74
2023/03/04 06:35:13;;;;;;;17.50;5.90;;;8.10;88.70;;;;;;5080979;28;20486;-74
2023/03/04 06:37:39;;;;;;;12.88;3.13;;;8.20;89.00;;;;;;5081060;28;20031;-74
2023/03/04 06:40:08;;;;;;;14.35;3.22;;;8.20;89.00;;;;;;5081607;28;20028;-73
2023/03/04 06:42:34;;;;;;;16.33;2.70;;;8.20;88.70;;;;;;5076490;28;20028;-74
2023/03/04 06:45:00;;;;;;;17.55;3.10;;;8.20;88.60;;;;;;5082331;28;20080;-75
2023/03/04 06:47:27;;;;;;;20.00;2.42;;;8.20;88.60;;;;;;5080853;28;20810;-76
2023/03/04 06:49:52;;;;;;;16.15;3.97;;;8.10;88.60;;;;;;5080265;28;20039;-75
2023/03/04 06:52:18;;;;;;;8.82;1.98;;;8.10;88.60;;;;;;5080202;28;20039;-74
2023/03/04 06:54:44;;;;;;;8.50;1.98;;;8.10;88.60;;;;;;5081142;28;20166;-74
2023/03/04 06:57:09;;;;;;;14.93;2.40;;;8.10;88.70;;;;;;5081006;28;20028;-74
2023/03/04 06:59:35;;;;;;;7.05;1.83;;;8.10;88.80;;;;;;5079683;28;20021;-74
2023/03/04 07:02:01;;;;;;;13.45;2.08;;;8.20;89.10;;;;;;5081647;28;20125;-74
2023/03/04 07:04:26;;;;;;;8.27;1.77;;;8.10;89.30;;;;;;5082838;28;20093;-73
2023/03/04 07:06:52;;;;;;;10.25;2.25;;;8.30;90.70;;;;;;5084048;28;20031;-73
2023/03/04 07:09:18;;;;;;;12.32;2.33;;;8.40;91.10;;;;;;5085787;28;20048;-74
2023/03/04 07:11:45;;;;;;;12.43;2.05;;;8.50;91.10;;;;;;5086156;28;20070;-75
2023/03/04 07:14:11;;;;;;;14.15;2.03;;;8.70;91.00;;;;;;5072218;28;20024;-74
2023/03/04 07:16:37;;;;;;;11.93;1.90;;;8.60;90.00;;;;;;5079643;28;20097;-73
2023/03/04 07:19:03;;;;;;;17.33;2.35;;;8.60;89.40;;;;;;5081281;28;20617;-75
2023/03/04 07:21:29;;;;;;;12.02;1.98;;;8.60;88.90;;;;;;5077478;28;20034;-74
2023/03/04 07:23:55;;;;;;;15.95;2.08;;;8.50;89.00;;;;;;5081191;28;20033;-74
2023/03/04 07:26:21;;;;;;;15.73;2.05;;;8.50;89.40;;;;;;5082480;28;20020;-74
2023/03/04 07:28:46;;;;;;;13.23;1.50;;;8.40;89.10;;;;;;5078666;28;20501;-74
2023/03/04 07:31:22;;;;;;;15.07;2.35;;;8.40;89.50;;;;;;5079671;28;20020;-75
2023/03/04 07:33:48;;;;;;;13.40;2.05;;;8.30;89.90;;;;;;5078184;28;20062;-74
2023/03/04 07:36:14;;;;;;;7.38;2.03;;;8.30;89.90;;;;;;5075733;28;20056;-73
2023/03/04 07:38:48;;;;;;;12.77;2.80;;;8.40;90.00;;;;;;5080951;28;20028;-74
2023/03/04 07:41:15;;;;;;;13.07;2.60;;;8.40;89.70;;;;;;5081043;28;20039;-73
2023/03/04 07:43:40;;;;;;;10.05;2.42;;;8.40;89.80;;;;;;5078582;28;20024;-73
2023/03/04 07:46:06;;;;;;;12.38;1.75;;;8.40;90.00;;;;;;5081013;28;20024;-73
2023/03/04 07:48:32;;;;;;;12.98;1.67;;;8.40;90.20;;;;;;5077421;28;20601;-73
2023/03/04 07:51:13;;;;;;;8.32;1.95;;;8.50;90.00;;;;;;5074177;28;20027;-73
2023/03/04 07:53:41;;;;;;;10.45;2.72;;;8.50;90.10;;;;;;5079276;28;20040;-74
2023/03/04 07:56:09;;;;;;;14.95;2.22;;;8.60;90.10;;;;;;5070513;28;20037;-74
2023/03/04 07:58:35;;;;;;;5.30;1.40;;;8.60;90.20;;;;;;5072134;28;20039;-73
2023/03/04 08:01:11;;;;;;;12.68;2.33;;;8.70;90.20;;;;;;5079859;28;20036;-74
2023/03/04 08:03:37;;;;;;;9.63;1.60;;;8.70;90.30;;;;;;5079091;28;20021;-74
2023/03/04 08:06:07;;;;;;;12.10;2.30;;;8.70;90.30;;;;;;5077313;28;20081;-75
2023/03/04 08:08:34;;;;;;;9.73;2.28;;;8.60;90.70;;;;;;5081490;28;20087;-73
2023/03/04 08:10:59;;;;;;;20.17;4.30;;;8.60;90.80;;;;;;5079457;28;20073;-72
2023/03/04 08:13:25;;;;;;;6.57;2.03;;;8.60;91.00;;;;;;5083720;28;20024;-74
2023/03/04 08:15:51;;;;;;;10.88;2.75;;;8.60;91.20;;;;;;5077235;28;20036;-74
2023/03/04 08:18:16;;;;;;;10.25;2.03;;;8.70;91.20;;;;;;5079005;28;20032;-74
2023/03/04 08:20:42;;;;;;;7.35;1.70;;;8.70;91.20;;;;;;5074292;28;20025;-75
2023/03/04 08:23:09;;;;;;;10.82;3.00;;;8.60;91.30;;;;;;5075691;28;20099;-74
2023/03/04 08:25:39;;;;;;;9.73;2.45;;;8.50;91.50;;;;;;5079883;28;20034;-75
2023/03/04 08:28:05;;;;;;;11.02;3.20;;;8.50;91.60;;;;;;5080845;28;20456;-74
2023/03/04 08:30:30;;;;;;;12.63;2.60;;;8.50;91.60;;;;;;5076280;28;20033;-75
2023/03/04 08:32:56;;;;;;;11.15;2.15;;;8.50;91.70;;;;;;5078935;28;20031;-74
2023/03/04 08:35:21;;;;;;;15.65;2.85;;;8.50;91.90;;;;;;5077746;28;20048;-74
2023/03/04 08:37:47;;;;;;;10.48;2.30;;;8.50;92.20;;;;;;5080253;28;20405;-74
2023/03/04 08:40:13;;;;;;;9.35;2.10;;;8.50;91.90;;;;;;5075896;28;20052;-74
2023/03/04 08:42:40;;;;;;;16.63;2.63;;;8.40;92.00;;;;;;5081265;28;20063;-74
2023/03/04 08:45:07;;;;;;;9.43;2.53;;;8.50;92.00;;;;;;5096513;28;20039;-74
2023/03/04 08:47:32;;;;;;;10.57;2.65;;;8.50;92.00;;;;;;5080541;28;20136;-74
2023/03/04 08:49:58;;;;;;;9.25;2.22;;;8.50;92.00;;;;;;5072777;28;20123;-76
2023/03/04 08:52:24;;;;;;;9.55;1.50;;;8.50;92.00;;;;;;5078065;28;20474;-74
2023/03/04 08:54:50;;;;;;;11.48;2.30;;;8.40;92.10;;;;;;5077365;28;20024;-74
2023/03/04 08:57:15;;;;;;;12.63;5.85;;;8.40;92.50;;;;;;5082629;28;20553;-75
2023/03/04 08:59:41;;;;;;;14.18;4.00;;;8.50;92.80;;;;;;5076751;28;20117;-75
2023/03/04 09:02:08;;;;;;;9.55;2.20;;;8.60;93.00;;;;;;5080884;28;20107;-74
2023/03/04 09:04:34;;;;;;;11.98;2.53;;;8.70;93.20;;;;;;5079815;28;20024;-75
2023/03/04 09:06:59;;;;;;;7.25;3.10;;;8.70;93.40;;;;;;5080547;28;20031;-74
2023/03/04 09:09:25;;;;;;;5.70;1.73;;;8.80;93.60;;;;;;5079731;28;20055;-74
2023/03/04 09:11:51;;;;;;;6.55;2.00;;;8.80;94.10;;;;;;5075876;28;20165;-75
2023/03/04 09:14:16;;;;;;;8.70;1.98;;;8.90;93.60;;;;;;5077585;28;20489;-73
2023/03/04 09:16:42;;;;;;;11.75;2.42;;;8.90;93.50;;;;;;5076946;28;20134;-74
2023/03/04 09:19:07;;;;;;;11.45;4.00;;;8.90;93.50;;;;;;5074669;28;20020;-75
2023/03/04 09:21:33;;;;;;;7.18;2.60;;;8.90;93.60;;;;;;5082070;28;20684;-74
2023/03/04 09:23:59;;;;;;;12.90;3.35;;;8.90;93.70;;;;;;5079752;28;20040;-75
2023/03/04 09:26:27;;;;;;;17.25;2.20;;;8.90;93.80;;;;;;5093840;28;20028;-75
2023/03/04 09:28:57;;;;;;;13.73;2.92;;;8.90;93.80;;;;;;5077655;28;20059;-75
2023/03/04 09:31:24;;;;;;;11.98;4.38;;;8.90;93.70;;;;;;5081098;28;20036;-75
2023/03/04 09:33:51;;;;;;;13.52;4.18;;;9.00;93.90;;;;;;5072574;28;20111;-74
2023/03/04 09:36:17;;;;;;;15.75;3.13;;;9.00;94.00;;;;;;5075983;28;20024;-74
2023/03/04 09:38:43;;;;;;;7.68;2.55;;;9.10;94.00;;;;;;5078417;28;20024;-73
2023/03/04 09:41:25;;;;;;;9.43;3.35;;;9.10;94.10;;;;;;5079628;28;20043;-75
2023/03/04 09:43:53;;;;;;;9.55;2.08;;;9.10;94.00;;;;;;5079709;28;20036;-74
2023/03/04 09:46:31;;;;;;;9.65;2.03;;;9.20;93.90;;;;;;5079281;28;20116;-73
2023/03/04 09:48:57;;;;;;;7.03;1.63;;;9.10;94.00;;;;;;5083625;28;20095;-75
2023/03/04 09:51:35;;;;;;;5.80;1.95;;;9.00;94.30;;;;;;5084526;28;20052;-73
2023/03/04 09:54:40;;;;;;;8.60;1.45;;;9.00;94.80;;;;;;5080396;28;20110;-73
2023/03/04 09:57:27;;;;;;;4.57;1.45;;;9.00;94.90;;;;;;5084214;28;20668;-73
2023/03/04 10:00:18;;;;;;;5.32;1.45;;;9.00;94.90;;;;;;5077913;28;20044;-76
2023/03/04 10:03:02;;;;;;;4.82;1.30;;;8.90;95.20;;;;;;5071848;28;20076;-75
2023/03/04 10:05:33;;;;;;;6.15;1.77;;;9.00;95.20;;;;;;5083543;28;20462;-74
2023/03/04 10:08:10;;;;;;;4.88;1.17;;;9.00;95.40;;;;;;5080572;28;20067;-74
2023/03/04 10:10:39;;;;;;;3.33;1.17;;;9.20;95.40;;;;;;5080174;28;20466;-74
2023/03/04 10:13:14;;;;;;;6.28;1.33;;;9.30;95.10;;;;;;5077482;28;20027;-73
2023/03/04 10:15:45;;;;;;;4.47;1.52;;;9.40;94.60;;;;;;5078950;28;20177;-73
2023/03/04 10:18:18;;;;;;;4.38;1.50;;;9.50;94.60;;;;;;5081599;28;20052;-74
2023/03/04 10:21:20;;;;;;;6.18;1.65;;;9.50;94.40;;;;;;5083967;28;20028;-74
2023/03/04 10:23:46;;;;;;;6.50;1.60;;;9.50;94.20;;;;;;5072293;28;20119;-75
2023/03/04 10:26:16;;;;;;;7.78;2.13;;;9.50;94.20;;;;;;5083003;28;20031;-74
2023/03/04 10:28:42;;;;;;;6.22;1.65;;;9.50;93.90;;;;;;5079044;28;20047;-74
2023/03/04 10:31:11;;;;;;;7.15;2.28;;;9.50;93.90;;;;;;5078791;28;20023;-74
2023/03/04 10:33:39;;;;;;;5.40;1.45;;;9.50;93.80;;;;;;5078443;28;20081;-73
2023/03/04 10:36:29;;;;;;;5.47;1.55;;;9.40;93.80;;;;;;5077080;28;20028;-73
2023/03/04 10:39:11;;;;;;;7.75;1.73;;;9.40;94.10;;;;;;5077846;28;20024;-75
2023/03/04 10:41:42;;;;;;;5.63;1.10;;;9.40;94.10;;;;;;5075225;28;20028;-73
2023/03/04 10:44:08;;;;;;;5.63;2.97;;;9.30;94.10;;;;;;5078641;28;20021;-74
2023/03/04 10:46:41;;;;;;;5.65;1.80;;;9.40;94.60;;;;;;5081666;28;20084;-73
2023/03/04 10:49:08;;;;;;;8.68;1.40;;;9.50;94.40;;;;;;5083690;28;20035;-74
2023/03/04 10:51:45;;;;;;;6.22;1.40;;;9.60;94.20;;;;;;5082038;28;20032;-73
2023/03/04 10:54:27;;;;;;;5.88;1.30;;;9.60;94.10;;;;;;5079993;28;20028;-74
2023/03/04 10:57:00;;;;;;;5.53;1.10;;;9.80;93.70;;;;;;5081319;28;20107;-75
2023/03/04 10:59:38;;;;;;;3.15;1.08;;;10.00;94.00;;;;;;5079599;28;20549;-73
2023/03/04 11:02:23;;;;;;;5.38;1.27;;;10.10;93.10;;;;;;5077133;28;20029;-72
2023/03/04 11:04:53;;;;;;;3.67;1.10;;;10.10;93.90;;;;;;5077111;28;20024;-73
2023/03/04 11:07:21;;;;;;;5.57;1.08;;;10.20;93.60;;;;;;5080840;28;20027;-74
2023/03/04 11:09:48;;;;;;;1.85;0.85;;;10.10;93.40;;;;;;5082808;28;20077;-74
2023/03/04 11:12:16;;;;;;;4.72;1.23;;;10.10;93.70;;;;;;5077457;28;20052;-73
2023/03/04 11:14:49;;;;;;;3.72;1.23;;;10.10;93.90;;;;;;5079353;28;20494;-74
2023/03/04 11:17:46;;;;;;;3.42;1.10;;;10.00;93.80;;;;;;5078571;28;20039;-73
2023/03/04 11:20:27;;;;;;;2.67;0.95;;;10.00;93.70;;;;;;5073906;28;20056;-75
2023/03/04 11:22:59;;;;;;;2.70;0.77;;;10.00;93.60;;;;;;5074292;28;20955;-74
2023/03/04 11:25:45;;;;;;;2.50;1.20;;;10.10;93.40;;;;;;5075921;28;20479;-74
2023/03/04 11:28:29;;;;;;;2.90;1.02;;;10.20;93.70;;;;;;5077990;28;20058;-72
2023/03/04 11:31:03;;;;;;;2.45;0.63;;;10.30;93.30;;;;;;5078972;28;20387;-73
2023/03/04 11:33:41;;;;;;;8.23;1.20;;;10.40;93.00;;;;;;5078781;28;20067;-73
2023/03/04 11:36:34;;;;;;;4.25;1.00;;;10.50;92.70;;;;;;5078428;28;20024;-73
2023/03/04 11:39:03;;;;;;;3.05;1.10;;;10.60;92.00;;;;;;5076636;28;20495;-74
2023/03/04 11:41:39;;;;;;;3.85;1.40;;;10.70;92.10;;;;;;5077439;28;20143;-75
2023/03/04 11:44:07;;;;;;;3.90;0.93;;;10.80;91.70;;;;;;5079962;28;20024;-74
2023/03/04 11:46:54;;;;;;;13.23;2.15;;;10.90;91.70;;;;;;5078748;28;20136;-74
2023/03/04 11:49:47;;;;;;;5.38;1.20;;;11.00;91.10;;;;;;5078749;28;20074;-74
2023/03/04 11:52:33;;;;;;;6.70;1.45;;;11.10;90.80;;;;;;5081694;28;20082;-74
2023/03/04 11:55:07;;;;;;;6.45;1.38;;;11.10;90.70;;;;;;5083704;28;20028;-75
2023/03/04 11:58:11;;;;;;;6.63;1.30;;;11.10;90.80;;;;;;5081691;28;20024;-74
2023/03/04 12:00:51;;;;;;;8.70;1.13;;;11.10;90.60;;;;;;5076537;28;20130;-74
2023/03/04 12:03:42;;;;;;;4.25;1.25;;;11.00;91.00;;;;;;5071139;28;20032;-75
2023/03/04 12:06:45;;;;;;;2.83;0.75;;;10.90;91.60;;;;;;5078837;28;20028;-74
2023/03/04 12:09:32;;;;;;;4.85;1.05;;;10.70;92.10;;;;;;5085961;28;20113;-75
2023/03/04 12:12:26;;;;;;;7.25;1.20;;;10.50;92.40;;;;;;5085232;28;20078;-73
2023/03/04 12:15:01;;;;;;;2.20;0.90;;;10.30;92.90;;;;;;5079492;28;20016;-73
2023/03/04 12:17:44;;;;;;;7.45;1.50;;;10.20;93.60;;;;;;5082249;28;20032;-74
2023/03/04 12:20:28;;;;;;;5.32;0.85;;;10.20;94.00;;;;;;5080894;28;20032;-73
2023/03/04 12:23:03;;;;;;;3.03;0.82;;;10.40;93.70;;;;;;5077315;28;20013;-74
2023/03/04 12:25:29;;;;;;;2.60;0.70;;;10.50;93.50;;;;;;5079866;28;20401;-74
2023/03/04 12:28:00;;;;;;;5.55;1.10;;;10.70;92.70;;;;;;5077390;28;20044;-74
2023/03/04 12:30:51;;;;;;;3.25;0.77;;;10.80;92.50;;;;;;5075349;28;20085;-74
2023/03/04 12:33:41;;;;;;;4.57;0.80;;;10.90;92.40;;;;;;5080506;28;20182;-74
2023/03/04 12:36:22;;;;;;;2.65;0.80;;;11.00;92.70;;;;;;5074720;28;20024;-74
2023/03/04 12:39:00;;;;;;;3.20;0.77;;;11.00;92.20;;;;;;5077809;28;20025;-73
2023/03/04 12:41:40;;;;;;;1.55;0.70;;;11.00;92.20;;;;;;5078833;28;20502;-74
2023/03/04 12:44:16;;;;;;;8.40;2.58;;;11.00;92.00;;;;;;5075594;28;20386;-73
2023/03/04 12:46:51;;;;;;;3.22;1.45;;;10.90;92.10;;;;;;5073689;28;20043;-74
2023/03/04 12:49:40;;;;;;;5.68;1.40;;;10.80;92.00;;;;;;5079667;28;20043;-74
2023/03/04 12:52:32;;;;;;;3.90;1.25;;;10.50;92.30;;;;;;5077367;28;20032;-74
2023/03/04 12:55:03;;;;;;;7.72;1.80;;;10.30;92.50;;;;;;5078964;28;20054;-74
2023/03/04 12:57:30;;;;;;;9.07;2.47;;;10.20;92.60;;;;;;5081337;28;20028;-74
2023/03/04 13:00:08;;;;;;;9.05;1.50;;;10.10;92.70;;;;;;5073928;28;20033;-74